Terminal Aerodrome Forecast
Issued by NWS

Home | Current Version | Previous Version | Text Only | Print | Product List | Glossary On
Versions: 1 2 3 4 5 6 7 8 9 10 11 12 13 14 15 16 17 18 19 20 21 22 23 24 25 26 27 28 29 30 31 32 33 34 35 36 37 38 39 40 41 42 43 44 45 46 47
000
FTUS43 KMKX 271136
TAFENW
TAF
KENW 271136Z 2712/2812 19008KT 6SM BR BKN009 OVC012
     FM271430 21012G21KT 5SM -SHRA BR OVC008
     FM271600 22013G23KT 6SM BR OVC015
     FM271900 26017G26KT P6SM OVC015
     FM272300 28015G22KT P6SM OVC035
     FM280300 30009KT P6SM BKN045
     FM280500 30008KT P6SM SCT050=

USA.gov is the U.S. government's official web portal to all federal, state and local government web resources and services.